sensor_id;sensor_type;location;lat;lon;timestamp;P1;durP1;ratioP1;P2;durP2;ratioP2
16407;SDS011;8313;49.894;8.084;2022-09-09T00:00:22;1.13;;;1.03;;
16407;SDS011;8313;49.894;8.084;2022-09-09T00:02:54;0.73;;;0.73;;
16407;SDS011;8313;49.894;8.084;2022-09-09T00:05:26;0.90;;;0.80;;
16407;SDS011;8313;49.894;8.084;2022-09-09T00:08:01;1.17;;;0.80;;
16407;SDS011;8313;49.894;8.084;2022-09-09T00:10:38;1.93;;;1.17;;
16407;SDS011;8313;49.894;8.084;2022-09-09T00:13:15;1.10;;;1.00;;
16407;SDS011;8313;49.894;8.084;2022-09-09T00:15:57;1.63;;;0.90;;
16407;SDS011;8313;49.894;8.084;2022-09-09T00:18:29;1.93;;;1.03;;
16407;SDS011;8313;49.894;8.084;2022-09-09T00:23:35;2.30;;;1.10;;
16407;SDS011;8313;49.894;8.084;2022-09-09T00:28:34;1.63;;;1.10;;
16407;SDS011;8313;49.894;8.084;2022-09-09T00:31:09;0.73;;;0.73;;
16407;SDS011;8313;49.894;8.084;2022-09-09T00:33:38;1.20;;;1.10;;
16407;SDS011;8313;49.894;8.084;2022-09-09T00:36:04;3.57;;;1.30;;
16407;SDS011;8313;49.894;8.084;2022-09-09T00:38:42;3.10;;;1.20;;
16407;SDS011;8313;49.894;8.084;2022-09-09T00:41:26;1.13;;;1.03;;
16407;SDS011;8313;49.894;8.084;2022-09-09T00:49:56;1.17;;;0.83;;
16407;SDS011;8313;49.894;8.084;2022-09-09T00:58:06;1.27;;;0.87;;
16407;SDS011;8313;49.894;8.084;2022-09-09T01:00:52;1.13;;;0.90;;
16407;SDS011;8313;49.894;8.084;2022-09-09T01:03:30;2.33;;;1.00;;
16407;SDS011;8313;49.894;8.084;2022-09-09T01:14:11;3.10;;;1.20;;
16407;SDS011;8313;49.894;8.084;2022-09-09T01:16:50;1.23;;;1.13;;
16407;SDS011;8313;49.894;8.084;2022-09-09T01:19:24;1.33;;;1.17;;
16407;SDS011;8313;49.894;8.084;2022-09-09T01:22:09;0.90;;;0.90;;
16407;SDS011;8313;49.894;8.084;2022-09-09T01:28:13;1.40;;;1.30;;
16407;SDS011;8313;49.894;8.084;2022-09-09T01:30:44;1.37;;;0.83;;
16407;SDS011;8313;49.894;8.084;2022-09-09T01:33:15;0.90;;;0.90;;
16407;SDS011;8313;49.894;8.084;2022-09-09T01:38:22;0.90;;;0.90;;
16407;SDS011;8313;49.894;8.084;2022-09-09T01:40:51;1.53;;;1.00;;
16407;SDS011;8313;49.894;8.084;2022-09-09T01:43:20;2.10;;;1.07;;
16407;SDS011;8313;49.894;8.084;2022-09-09T01:45:46;2.50;;;1.37;;
16407;SDS011;8313;49.894;8.084;2022-09-09T01:48:15;1.27;;;0.90;;
16407;SDS011;8313;49.894;8.084;2022-09-09T01:50:50;1.07;;;0.97;;
16407;SDS011;8313;49.894;8.084;2022-09-09T01:53:17;1.20;;;1.00;;
16407;SDS011;8313;49.894;8.084;2022-09-09T01:55:52;1.13;;;1.03;;
16407;SDS011;8313;49.894;8.084;2022-09-09T01:58:43;2.97;;;0.93;;
16407;SDS011;8313;49.894;8.084;2022-09-09T02:01:24;1.40;;;1.00;;
16407;SDS011;8313;49.894;8.084;2022-09-09T02:03:57;1.53;;;0.80;;
16407;SDS011;8313;49.894;8.084;2022-09-09T02:06:28;0.60;;;0.60;;
16407;SDS011;8313;49.894;8.084;2022-09-09T02:09:07;1.77;;;1.37;;
16407;SDS011;8313;49.894;8.084;2022-09-09T02:11:37;1.73;;;1.03;;
16407;SDS011;8313;49.894;8.084;2022-09-09T02:14:16;1.07;;;0.97;;
16407;SDS011;8313;49.894;8.084;2022-09-09T02:16:48;0.80;;;0.80;;
16407;SDS011;8313;49.894;8.084;2022-09-09T02:19:21;1.17;;;1.07;;
16407;SDS011;8313;49.894;8.084;2022-09-09T02:22:00;5.77;;;1.00;;
16407;SDS011;8313;49.894;8.084;2022-09-09T02:24:30;1.60;;;1.00;;
16407;SDS011;8313;49.894;8.084;2022-09-09T02:27:12;1.30;;;1.17;;
16407;SDS011;8313;49.894;8.084;2022-09-09T02:29:41;0.90;;;0.90;;
16407;SDS011;8313;49.894;8.084;2022-09-09T02:32:14;1.47;;;1.27;;
16407;SDS011;8313;49.894;8.084;2022-09-09T02:34:46;1.40;;;1.30;;
16407;SDS011;8313;49.894;8.084;2022-09-09T02:37:16;1.23;;;1.03;;
16407;SDS011;8313;49.894;8.084;2022-09-09T02:39:48;2.47;;;1.10;;
16407;SDS011;8313;49.894;8.084;2022-09-09T02:42:17;1.00;;;1.00;;
16407;SDS011;8313;49.894;8.084;2022-09-09T02:44:44;2.10;;;1.20;;
16407;SDS011;8313;49.894;8.084;2022-09-09T02:53:37;1.20;;;1.10;;
16407;SDS011;8313;49.894;8.084;2022-09-09T02:56:13;3.90;;;1.23;;
16407;SDS011;8313;49.894;8.084;2022-09-09T02:58:44;1.93;;;1.13;;
16407;SDS011;8313;49.894;8.084;2022-09-09T03:01:10;1.93;;;1.10;;
16407;SDS011;8313;49.894;8.084;2022-09-09T03:03:36;2.53;;;1.10;;
16407;SDS011;8313;49.894;8.084;2022-09-09T03:06:06;3.77;;;1.53;;
16407;SDS011;8313;49.894;8.084;2022-09-09T03:08:32;1.37;;;1.27;;
16407;SDS011;8313;49.894;8.084;2022-09-09T03:10:59;1.27;;;1.17;;
16407;SDS011;8313;49.894;8.084;2022-09-09T03:13:31;1.43;;;1.10;;
16407;SDS011;8313;49.894;8.084;2022-09-09T03:15:57;3.47;;;1.30;;
16407;SDS011;8313;49.894;8.084;2022-09-09T03:18:23;1.60;;;1.10;;
16407;SDS011;8313;49.894;8.084;2022-09-09T03:20:51;1.93;;;1.17;;
16407;SDS011;8313;49.894;8.084;2022-09-09T03:23:19;1.10;;;1.00;;
16407;SDS011;8313;49.894;8.084;2022-09-09T03:25:47;1.33;;;1.23;;
16407;SDS011;8313;49.894;8.084;2022-09-09T03:28:15;1.33;;;1.10;;
16407;SDS011;8313;49.894;8.084;2022-09-09T03:30:41;2.10;;;1.17;;
16407;SDS011;8313;49.894;8.084;2022-09-09T03:33:07;1.67;;;1.10;;
16407;SDS011;8313;49.894;8.084;2022-09-09T03:35:33;1.63;;;1.00;;
16407;SDS011;8313;49.894;8.084;2022-09-09T03:37:59;1.10;;;1.10;;
16407;SDS011;8313;49.894;8.084;2022-09-09T03:40:26;2.60;;;1.27;;
16407;SDS011;8313;49.894;8.084;2022-09-09T03:42:52;3.57;;;1.37;;
16407;SDS011;8313;49.894;8.084;2022-09-09T03:45:18;2.10;;;0.93;;
16407;SDS011;8313;49.894;8.084;2022-09-09T03:47:44;1.63;;;1.00;;
16407;SDS011;8313;49.894;8.084;2022-09-09T03:50:10;1.63;;;1.10;;
16407;SDS011;8313;49.894;8.084;2022-09-09T03:52:40;1.60;;;1.50;;
16407;SDS011;8313;49.894;8.084;2022-09-09T03:55:13;2.90;;;2.00;;
16407;SDS011;8313;49.894;8.084;2022-09-09T03:57:39;2.00;;;1.27;;
16407;SDS011;8313;49.894;8.084;2022-09-09T04:00:07;4.57;;;1.20;;
16407;SDS011;8313;49.894;8.084;2022-09-09T04:02:51;1.00;;;1.00;;
16407;SDS011;8313;49.894;8.084;2022-09-09T04:05:19;0.90;;;0.80;;
16407;SDS011;8313;49.894;8.084;2022-09-09T04:07:46;6.73;;;2.13;;
16407;SDS011;8313;49.894;8.084;2022-09-09T04:10:12;1.27;;;1.00;;
16407;SDS011;8313;49.894;8.084;2022-09-09T04:12:39;2.63;;;1.10;;
16407;SDS011;8313;49.894;8.084;2022-09-09T04:15:05;1.13;;;1.00;;
16407;SDS011;8313;49.894;8.084;2022-09-09T04:17:31;1.23;;;1.13;;
16407;SDS011;8313;49.894;8.084;2022-09-09T04:19:58;1.23;;;1.07;;
16407;SDS011;8313;49.894;8.084;2022-09-09T04:22:23;2.30;;;1.20;;
16407;SDS011;8313;49.894;8.084;2022-09-09T04:24:49;1.20;;;1.20;;
16407;SDS011;8313;49.894;8.084;2022-09-09T04:27:17;1.10;;;0.90;;
16407;SDS011;8313;49.894;8.084;2022-09-09T04:29:43;1.83;;;1.10;;
16407;SDS011;8313;49.894;8.084;2022-09-09T04:32:09;2.93;;;1.30;;
16407;SDS011;8313;49.894;8.084;2022-09-09T04:34:35;2.50;;;1.37;;
16407;SDS011;8313;49.894;8.084;2022-09-09T04:37:00;9.70;;;1.57;;
16407;SDS011;8313;49.894;8.084;2022-09-09T04:39:27;5.07;;;1.10;;
16407;SDS011;8313;49.894;8.084;2022-09-09T04:41:52;2.70;;;1.63;;
16407;SDS011;8313;49.894;8.084;2022-09-09T04:44:20;2.07;;;1.20;;
16407;SDS011;8313;49.894;8.084;2022-09-09T04:46:47;2.23;;;1.10;;
16407;SDS011;8313;49.894;8.084;2022-09-09T04:49:13;1.33;;;1.13;;
16407;SDS011;8313;49.894;8.084;2022-09-09T04:51:38;1.13;;;0.90;;
16407;SDS011;8313;49.894;8.084;2022-09-09T04:54:04;4.70;;;1.67;;
16407;SDS011;8313;49.894;8.084;2022-09-09T04:56:31;2.00;;;1.03;;
16407;SDS011;8313;49.894;8.084;2022-09-09T04:58:58;1.80;;;1.17;;
16407;SDS011;8313;49.894;8.084;2022-09-09T05:01:40;1.97;;;1.10;;
16407;SDS011;8313;49.894;8.084;2022-09-09T05:04:06;4.33;;;1.20;;
16407;SDS011;8313;49.894;8.084;2022-09-09T05:06:32;4.37;;;1.53;;
16407;SDS011;8313;49.894;8.084;2022-09-09T05:08:59;6.23;;;1.37;;
16407;SDS011;8313;49.894;8.084;2022-09-09T05:11:29;2.00;;;1.27;;
16407;SDS011;8313;49.894;8.084;2022-09-09T05:14:02;1.33;;;1.00;;
16407;SDS011;8313;49.894;8.084;2022-09-09T05:16:29;1.37;;;1.17;;
16407;SDS011;8313;49.894;8.084;2022-09-09T05:18:56;1.33;;;1.23;;
16407;SDS011;8313;49.894;8.084;2022-09-09T05:21:22;1.43;;;1.00;;
16407;SDS011;8313;49.894;8.084;2022-09-09T05:23:51;1.30;;;1.20;;
16407;SDS011;8313;49.894;8.084;2022-09-09T05:26:19;1.20;;;0.93;;
16407;SDS011;8313;49.894;8.084;2022-09-09T05:28:48;0.97;;;0.97;;
16407;SDS011;8313;49.894;8.084;2022-09-09T05:31:14;2.20;;;1.30;;
16407;SDS011;8313;49.894;8.084;2022-09-09T05:33:43;1.20;;;1.10;;
16407;SDS011;8313;49.894;8.084;2022-09-09T05:36:12;8.53;;;1.77;;
16407;SDS011;8313;49.894;8.084;2022-09-09T05:38:40;1.63;;;1.20;;
16407;SDS011;8313;49.894;8.084;2022-09-09T05:41:07;3.10;;;1.20;;
16407;SDS011;8313;49.894;8.084;2022-09-09T05:43:35;2.37;;;0.97;;
16407;SDS011;8313;49.894;8.084;2022-09-09T05:46:03;4.50;;;1.30;;
16407;SDS011;8313;49.894;8.084;2022-09-09T05:48:37;1.50;;;1.40;;
16407;SDS011;8313;49.894;8.084;2022-09-09T05:51:11;1.67;;;1.17;;
16407;SDS011;8313;49.894;8.084;2022-09-09T05:53:41;3.23;;;1.77;;
16407;SDS011;8313;49.894;8.084;2022-09-09T05:56:09;1.80;;;1.30;;
16407;SDS011;8313;49.894;8.084;2022-09-09T05:58:36;9.43;;;1.53;;
16407;SDS011;8313;49.894;8.084;2022-09-09T06:01:07;1.73;;;1.23;;
16407;SDS011;8313;49.894;8.084;2022-09-09T06:03:40;1.40;;;1.30;;
16407;SDS011;8313;49.894;8.084;2022-09-09T06:06:09;1.70;;;1.47;;
16407;SDS011;8313;49.894;8.084;2022-09-09T06:08:38;1.60;;;1.30;;
16407;SDS011;8313;49.894;8.084;2022-09-09T06:11:06;2.77;;;1.37;;
16407;SDS011;8313;49.894;8.084;2022-09-09T06:13:37;1.93;;;1.23;;
16407;SDS011;8313;49.894;8.084;2022-09-09T06:16:14;2.20;;;1.47;;
16407;SDS011;8313;49.894;8.084;2022-09-09T06:18:42;1.20;;;1.10;;
16407;SDS011;8313;49.894;8.084;2022-09-09T06:21:19;2.13;;;1.50;;
16407;SDS011;8313;49.894;8.084;2022-09-09T06:23:46;2.93;;;2.00;;
16407;SDS011;8313;49.894;8.084;2022-09-09T06:28:38;2.07;;;1.53;;
16407;SDS011;8313;49.894;8.084;2022-09-09T06:31:05;1.50;;;1.40;;
16407;SDS011;8313;49.894;8.084;2022-09-09T06:33:34;2.80;;;1.80;;
16407;SDS011;8313;49.894;8.084;2022-09-09T06:36:02;2.20;;;1.67;;
16407;SDS011;8313;49.894;8.084;2022-09-09T06:38:29;1.60;;;1.50;;
16407;SDS011;8313;49.894;8.084;2022-09-09T06:40:56;2.83;;;1.37;;
16407;SDS011;8313;49.894;8.084;2022-09-09T06:43:24;2.10;;;1.53;;
16407;SDS011;8313;49.894;8.084;2022-09-09T06:45:54;4.70;;;1.60;;
16407;SDS011;8313;49.894;8.084;2022-09-09T06:48:19;2.50;;;2.20;;
16407;SDS011;8313;49.894;8.084;2022-09-09T06:50:45;1.80;;;1.70;;
16407;SDS011;8313;49.894;8.084;2022-09-09T06:53:15;1.70;;;1.60;;
16407;SDS011;8313;49.894;8.084;2022-09-09T06:55:43;3.43;;;2.00;;
16407;SDS011;8313;49.894;8.084;2022-09-09T06:58:11;3.00;;;2.70;;
16407;SDS011;8313;49.894;8.084;2022-09-09T07:00:37;2.60;;;2.40;;
16407;SDS011;8313;49.894;8.084;2022-09-09T07:03:04;4.27;;;2.23;;
16407;SDS011;8313;49.894;8.084;2022-09-09T07:05:31;3.10;;;2.80;;
16407;SDS011;8313;49.894;8.084;2022-09-09T07:07:57;3.00;;;2.70;;
16407;SDS011;8313;49.894;8.084;2022-09-09T07:10:24;4.77;;;2.70;;
16407;SDS011;8313;49.894;8.084;2022-09-09T07:12:50;5.30;;;3.00;;
16407;SDS011;8313;49.894;8.084;2022-09-09T07:15:18;3.90;;;3.10;;
16407;SDS011;8313;49.894;8.084;2022-09-09T07:17:44;3.03;;;2.77;;
16407;SDS011;8313;49.894;8.084;2022-09-09T07:20:10;3.27;;;3.07;;
16407;SDS011;8313;49.894;8.084;2022-09-09T07:22:37;4.13;;;3.73;;
16407;SDS011;8313;49.894;8.084;2022-09-09T07:25:03;2.90;;;2.70;;
16407;SDS011;8313;49.894;8.084;2022-09-09T07:27:29;5.80;;;4.10;;
16407;SDS011;8313;49.894;8.084;2022-09-09T07:29:55;6.70;;;3.83;;
16407;SDS011;8313;49.894;8.084;2022-09-09T07:32:22;4.17;;;3.70;;
16407;SDS011;8313;49.894;8.084;2022-09-09T07:34:48;5.93;;;2.77;;
16407;SDS011;8313;49.894;8.084;2022-09-09T07:37:15;3.37;;;3.10;;
16407;SDS011;8313;49.894;8.084;2022-09-09T07:39:43;3.13;;;2.90;;
16407;SDS011;8313;49.894;8.084;2022-09-09T07:42:09;5.90;;;4.00;;
16407;SDS011;8313;49.894;8.084;2022-09-09T07:44:38;4.50;;;3.10;;
16407;SDS011;8313;49.894;8.084;2022-09-09T07:47:11;3.70;;;2.70;;
16407;SDS011;8313;49.894;8.084;2022-09-09T07:49:43;3.60;;;2.70;;
16407;SDS011;8313;49.894;8.084;2022-09-09T07:52:12;4.43;;;3.20;;
16407;SDS011;8313;49.894;8.084;2022-09-09T07:54:40;3.70;;;3.40;;
16407;SDS011;8313;49.894;8.084;2022-09-09T07:57:07;3.40;;;2.90;;
16407;SDS011;8313;49.894;8.084;2022-09-09T07:59:34;2.87;;;2.67;;
16407;SDS011;8313;49.894;8.084;2022-09-09T08:02:01;3.57;;;3.27;;
16407;SDS011;8313;49.894;8.084;2022-09-09T08:04:30;4.47;;;2.43;;
16407;SDS011;8313;49.894;8.084;2022-09-09T08:06:57;4.07;;;3.10;;
16407;SDS011;8313;49.894;8.084;2022-09-09T08:09:25;6.53;;;2.80;;
16407;SDS011;8313;49.894;8.084;2022-09-09T08:11:57;3.67;;;2.90;;
16407;SDS011;8313;49.894;8.084;2022-09-09T08:14:24;3.90;;;3.33;;
16407;SDS011;8313;49.894;8.084;2022-09-09T08:16:50;4.20;;;3.40;;
16407;SDS011;8313;49.894;8.084;2022-09-09T08:19:20;4.63;;;3.50;;
16407;SDS011;8313;49.894;8.084;2022-09-09T08:21:46;4.97;;;3.73;;
16407;SDS011;8313;49.894;8.084;2022-09-09T08:24:12;5.73;;;3.30;;
16407;SDS011;8313;49.894;8.084;2022-09-09T08:26:45;4.60;;;3.07;;
16407;SDS011;8313;49.894;8.084;2022-09-09T08:29:17;5.43;;;3.10;;
16407;SDS011;8313;49.894;8.084;2022-09-09T08:31:45;6.73;;;3.67;;
16407;SDS011;8313;49.894;8.084;2022-09-09T08:34:13;4.40;;;3.10;;
16407;SDS011;8313;49.894;8.084;2022-09-09T08:36:43;3.77;;;2.63;;
16407;SDS011;8313;49.894;8.084;2022-09-09T08:39:12;5.70;;;2.77;;
16407;SDS011;8313;49.894;8.084;2022-09-09T08:47:03;5.33;;;2.30;;
16407;SDS011;8313;49.894;8.084;2022-09-09T08:49:45;5.10;;;2.40;;
16407;SDS011;8313;49.894;8.084;2022-09-09T08:52:28;2.10;;;1.90;;
16407;SDS011;8313;49.894;8.084;2022-09-09T08:54:56;3.27;;;2.60;;
16407;SDS011;8313;49.894;8.084;2022-09-09T08:57:29;8.03;;;2.23;;
16407;SDS011;8313;49.894;8.084;2022-09-09T08:59:56;3.17;;;1.83;;
16407;SDS011;8313;49.894;8.084;2022-09-09T09:02:31;4.37;;;2.67;;
16407;SDS011;8313;49.894;8.084;2022-09-09T09:08:08;7.37;;;2.50;;
16407;SDS011;8313;49.894;8.084;2022-09-09T09:13:17;4.97;;;1.77;;
16407;SDS011;8313;49.894;8.084;2022-09-09T09:15:55;2.00;;;1.60;;
16407;SDS011;8313;49.894;8.084;2022-09-09T09:18:30;2.90;;;1.70;;
16407;SDS011;8313;49.894;8.084;2022-09-09T09:21:08;2.40;;;1.60;;
16407;SDS011;8313;49.894;8.084;2022-09-09T09:23:44;3.43;;;2.40;;
16407;SDS011;8313;49.894;8.084;2022-09-09T09:26:18;1.50;;;1.40;;
16407;SDS011;8313;49.894;8.084;2022-09-09T09:28:45;1.90;;;1.50;;
16407;SDS011;8313;49.894;8.084;2022-09-09T09:31:14;2.93;;;1.70;;
16407;SDS011;8313;49.894;8.084;2022-09-09T09:33:50;3.90;;;2.13;;
16407;SDS011;8313;49.894;8.084;2022-09-09T09:36:24;5.80;;;1.90;;
16407;SDS011;8313;49.894;8.084;2022-09-09T09:39:01;2.90;;;1.90;;
16407;SDS011;8313;49.894;8.084;2022-09-09T09:41:41;2.07;;;1.90;;
16407;SDS011;8313;49.894;8.084;2022-09-09T09:44:29;2.10;;;1.83;;
16407;SDS011;8313;49.894;8.084;2022-09-09T09:47:10;1.73;;;1.60;;
16407;SDS011;8313;49.894;8.084;2022-09-09T09:49:39;3.00;;;2.23;;
16407;SDS011;8313;49.894;8.084;2022-09-09T09:52:17;2.50;;;1.63;;
16407;SDS011;8313;49.894;8.084;2022-09-09T09:54:47;2.50;;;1.60;;
16407;SDS011;8313;49.894;8.084;2022-09-09T09:57:14;1.50;;;1.40;;
16407;SDS011;8313;49.894;8.084;2022-09-09T09:59:44;2.00;;;1.70;;
16407;SDS011;8313;49.894;8.084;2022-09-09T10:02:21;2.50;;;1.83;;
16407;SDS011;8313;49.894;8.084;2022-09-09T10:05:06;2.17;;;1.63;;
16407;SDS011;8313;49.894;8.084;2022-09-09T10:07:44;2.13;;;1.40;;
16407;SDS011;8313;49.894;8.084;2022-09-09T10:13:13;5.33;;;2.93;;
16407;SDS011;8313;49.894;8.084;2022-09-09T10:19:45;2.90;;;1.77;;
16407;SDS011;8313;49.894;8.084;2022-09-09T10:22:19;1.63;;;1.53;;
16407;SDS011;8313;49.894;8.084;2022-09-09T10:27:45;2.73;;;1.87;;
16407;SDS011;8313;49.894;8.084;2022-09-09T10:30:22;1.37;;;1.27;;
16407;SDS011;8313;49.894;8.084;2022-09-09T10:32:49;4.50;;;2.00;;
16407;SDS011;8313;49.894;8.084;2022-09-09T10:56:41;5.33;;;1.70;;
16407;SDS011;8313;49.894;8.084;2022-09-09T10:59:12;1.63;;;1.53;;
16407;SDS011;8313;49.894;8.084;2022-09-09T11:01:44;4.47;;;1.87;;
16407;SDS011;8313;49.894;8.084;2022-09-09T11:04:14;2.23;;;2.00;;
16407;SDS011;8313;49.894;8.084;2022-09-09T11:06:47;2.17;;;1.70;;
16407;SDS011;8313;49.894;8.084;2022-09-09T11:09:19;2.10;;;1.90;;
16407;SDS011;8313;49.894;8.084;2022-09-09T11:11:56;3.70;;;2.10;;
16407;SDS011;8313;49.894;8.084;2022-09-09T11:14:28;1.70;;;1.60;;
16407;SDS011;8313;49.894;8.084;2022-09-09T11:17:03;2.10;;;1.60;;
16407;SDS011;8313;49.894;8.084;2022-09-09T11:30:05;3.57;;;1.70;;
16407;SDS011;8313;49.894;8.084;2022-09-09T11:38:46;1.50;;;1.40;;
16407;SDS011;8313;49.894;8.084;2022-09-09T11:41:16;1.53;;;1.10;;
16407;SDS011;8313;49.894;8.084;2022-09-09T11:43:43;4.10;;;1.70;;
16407;SDS011;8313;49.894;8.084;2022-09-09T11:46:12;1.90;;;1.60;;
16407;SDS011;8313;49.894;8.084;2022-09-09T11:48:44;1.40;;;1.30;;
16407;SDS011;8313;49.894;8.084;2022-09-09T11:56:30;2.03;;;1.17;;
16407;SDS011;8313;49.894;8.084;2022-09-09T12:01:50;3.87;;;1.50;;
16407;SDS011;8313;49.894;8.084;2022-09-09T12:09:26;1.87;;;1.23;;
16407;SDS011;8313;49.894;8.084;2022-09-09T12:11:53;2.73;;;1.50;;
16407;SDS011;8313;49.894;8.084;2022-09-09T12:14:56;3.27;;;1.77;;
16407;SDS011;8313;49.894;8.084;2022-09-09T12:17:25;1.90;;;1.30;;
16407;SDS011;8313;49.894;8.084;2022-09-09T12:22:51;2.83;;;1.27;;
16407;SDS011;8313;49.894;8.084;2022-09-09T12:28:04;3.93;;;1.27;;
16407;SDS011;8313;49.894;8.084;2022-09-09T12:31:02;2.30;;;1.40;;
16407;SDS011;8313;49.894;8.084;2022-09-09T12:33:43;2.97;;;0.83;;
16407;SDS011;8313;49.894;8.084;2022-09-09T12:36:23;4.53;;;1.07;;
16407;SDS011;8313;49.894;8.084;2022-09-09T12:38:53;1.20;;;1.10;;
16407;SDS011;8313;49.894;8.084;2022-09-09T12:41:24;2.53;;;1.53;;
16407;SDS011;8313;49.894;8.084;2022-09-09T12:43:51;2.37;;;1.10;;
16407;SDS011;8313;49.894;8.084;2022-09-09T12:46:38;0.70;;;0.70;;
16407;SDS011;8313;49.894;8.084;2022-09-09T12:49:24;0.77;;;0.73;;
16407;SDS011;8313;49.894;8.084;2022-09-09T12:54:43;1.20;;;0.80;;
16407;SDS011;8313;49.894;8.084;2022-09-09T12:57:12;0.80;;;0.80;;
16407;SDS011;8313;49.894;8.084;2022-09-09T12:59:40;1.27;;;0.80;;
16407;SDS011;8313;49.894;8.084;2022-09-09T13:04:51;0.83;;;0.60;;
16407;SDS011;8313;49.894;8.084;2022-09-09T13:07:18;3.80;;;0.83;;
16407;SDS011;8313;49.894;8.084;2022-09-09T13:09:45;0.70;;;0.60;;
16407;SDS011;8313;49.894;8.084;2022-09-09T13:12:16;0.60;;;0.60;;
16407;SDS011;8313;49.894;8.084;2022-09-09T13:14:49;1.93;;;1.00;;
16407;SDS011;8313;49.894;8.084;2022-09-09T13:17:19;0.70;;;0.70;;
16407;SDS011;8313;49.894;8.084;2022-09-09T13:19:47;0.40;;;0.40;;
16407;SDS011;8313;49.894;8.084;2022-09-09T13:24:44;1.63;;;0.80;;
16407;SDS011;8313;49.894;8.084;2022-09-09T13:27:31;1.57;;;0.70;;
16407;SDS011;8313;49.894;8.084;2022-09-09T13:29:59;0.50;;;0.50;;
16407;SDS011;8313;49.894;8.084;2022-09-09T13:32:26;4.73;;;1.30;;
16407;SDS011;8313;49.894;8.084;2022-09-09T13:34:53;0.70;;;0.60;;
16407;SDS011;8313;49.894;8.084;2022-09-09T13:37:22;1.40;;;0.70;;
16407;SDS011;8313;49.894;8.084;2022-09-09T13:39:55;0.70;;;0.63;;
16407;SDS011;8313;49.894;8.084;2022-09-09T13:42:22;1.53;;;1.27;;
16407;SDS011;8313;49.894;8.084;2022-09-09T13:44:51;2.33;;;1.00;;
16407;SDS011;8313;49.894;8.084;2022-09-09T13:49:48;2.17;;;1.03;;
16407;SDS011;8313;49.894;8.084;2022-09-09T13:52:17;1.63;;;0.73;;
16407;SDS011;8313;49.894;8.084;2022-09-09T13:54:47;1.47;;;0.87;;
16407;SDS011;8313;49.894;8.084;2022-09-09T13:57:22;4.57;;;1.20;;
16407;SDS011;8313;49.894;8.084;2022-09-09T13:59:50;1.10;;;1.00;;
16407;SDS011;8313;49.894;8.084;2022-09-09T14:02:17;2.77;;;0.90;;
16407;SDS011;8313;49.894;8.084;2022-09-09T14:04:43;1.23;;;1.07;;
16407;SDS011;8313;49.894;8.084;2022-09-09T14:07:13;1.83;;;1.30;;
16407;SDS011;8313;49.894;8.084;2022-09-09T14:09:40;0.90;;;0.90;;
16407;SDS011;8313;49.894;8.084;2022-09-09T14:12:10;3.80;;;1.20;;
16407;SDS011;8313;49.894;8.084;2022-09-09T14:14:37;1.97;;;1.33;;
16407;SDS011;8313;49.894;8.084;2022-09-09T14:17:03;1.80;;;1.53;;
16407;SDS011;8313;49.894;8.084;2022-09-09T14:19:29;2.20;;;1.30;;
16407;SDS011;8313;49.894;8.084;2022-09-09T14:21:56;3.53;;;1.10;;
16407;SDS011;8313;49.894;8.084;2022-09-09T14:24:22;1.63;;;1.20;;
16407;SDS011;8313;49.894;8.084;2022-09-09T14:26:48;3.77;;;1.50;;
16407;SDS011;8313;49.894;8.084;2022-09-09T14:29:14;4.43;;;1.23;;
16407;SDS011;8313;49.894;8.084;2022-09-09T14:31:39;1.20;;;1.10;;
16407;SDS011;8313;49.894;8.084;2022-09-09T14:34:05;1.37;;;1.00;;
16407;SDS011;8313;49.894;8.084;2022-09-09T14:36:31;3.03;;;1.00;;
16407;SDS011;8313;49.894;8.084;2022-09-09T14:38:57;1.00;;;0.90;;
16407;SDS011;8313;49.894;8.084;2022-09-09T14:41:23;1.60;;;1.10;;
16407;SDS011;8313;49.894;8.084;2022-09-09T14:43:50;0.93;;;0.90;;
16407;SDS011;8313;49.894;8.084;2022-09-09T14:46:17;1.97;;;1.30;;
16407;SDS011;8313;49.894;8.084;2022-09-09T14:48:43;1.47;;;0.90;;
16407;SDS011;8313;49.894;8.084;2022-09-09T14:53:48;1.20;;;0.97;;
16407;SDS011;8313;49.894;8.084;2022-09-09T14:56:17;4.63;;;1.47;;
16407;SDS011;8313;49.894;8.084;2022-09-09T14:58:44;2.40;;;1.17;;
16407;SDS011;8313;49.894;8.084;2022-09-09T15:01:12;0.97;;;0.77;;
16407;SDS011;8313;49.894;8.084;2022-09-09T15:03:40;1.77;;;1.13;;
16407;SDS011;8313;49.894;8.084;2022-09-09T15:06:13;0.80;;;0.80;;
16407;SDS011;8313;49.894;8.084;2022-09-09T15:08:43;1.23;;;0.90;;
16407;SDS011;8313;49.894;8.084;2022-09-09T15:11:09;1.40;;;1.03;;
16407;SDS011;8313;49.894;8.084;2022-09-09T15:13:37;2.83;;;1.00;;
16407;SDS011;8313;49.894;8.084;2022-09-09T15:16:08;1.03;;;1.00;;
16407;SDS011;8313;49.894;8.084;2022-09-09T15:18:36;2.73;;;1.27;;
16407;SDS011;8313;49.894;8.084;2022-09-09T15:21:05;5.10;;;1.50;;
16407;SDS011;8313;49.894;8.084;2022-09-09T15:23:31;1.50;;;0.93;;
16407;SDS011;8313;49.894;8.084;2022-09-09T15:25:57;0.93;;;0.90;;
16407;SDS011;8313;49.894;8.084;2022-09-09T15:28:23;1.00;;;0.80;;
16407;SDS011;8313;49.894;8.084;2022-09-09T15:30:50;0.73;;;0.73;;
16407;SDS011;8313;49.894;8.084;2022-09-09T15:33:17;1.43;;;0.90;;
16407;SDS011;8313;49.894;8.084;2022-09-09T15:35:44;2.47;;;1.00;;
16407;SDS011;8313;49.894;8.084;2022-09-09T15:38:09;2.17;;;0.80;;
16407;SDS011;8313;49.894;8.084;2022-09-09T15:40:36;1.20;;;1.10;;
16407;SDS011;8313;49.894;8.084;2022-09-09T15:43:02;1.40;;;0.87;;
16407;SDS011;8313;49.894;8.084;2022-09-09T15:45:31;0.97;;;0.60;;
16407;SDS011;8313;49.894;8.084;2022-09-09T15:47:59;1.37;;;0.90;;
16407;SDS011;8313;49.894;8.084;2022-09-09T15:50:25;3.43;;;1.13;;
16407;SDS011;8313;49.894;8.084;2022-09-09T15:52:51;1.67;;;1.40;;
16407;SDS011;8313;49.894;8.084;2022-09-09T15:55:18;2.07;;;1.10;;
16407;SDS011;8313;49.894;8.084;2022-09-09T15:57:45;1.57;;;1.00;;
16407;SDS011;8313;49.894;8.084;2022-09-09T16:00:11;1.27;;;0.80;;
16407;SDS011;8313;49.894;8.084;2022-09-09T16:02:38;1.40;;;0.80;;
16407;SDS011;8313;49.894;8.084;2022-09-09T16:05:04;0.80;;;0.80;;
16407;SDS011;8313;49.894;8.084;2022-09-09T16:07:30;1.90;;;1.20;;
16407;SDS011;8313;49.894;8.084;2022-09-09T16:09:56;1.03;;;0.90;;
16407;SDS011;8313;49.894;8.084;2022-09-09T16:12:21;1.07;;;0.97;;
16407;SDS011;8313;49.894;8.084;2022-09-09T16:14:47;1.77;;;1.00;;
16407;SDS011;8313;49.894;8.084;2022-09-09T16:17:13;0.80;;;0.80;;
16407;SDS011;8313;49.894;8.084;2022-09-09T16:19:40;0.87;;;0.70;;
16407;SDS011;8313;49.894;8.084;2022-09-09T16:22:05;1.03;;;0.77;;
16407;SDS011;8313;49.894;8.084;2022-09-09T16:24:32;1.50;;;0.90;;
16407;SDS011;8313;49.894;8.084;2022-09-09T16:26:57;0.60;;;0.60;;
16407;SDS011;8313;49.894;8.084;2022-09-09T16:29:23;2.23;;;0.90;;
16407;SDS011;8313;49.894;8.084;2022-09-09T16:31:52;0.80;;;0.80;;
16407;SDS011;8313;49.894;8.084;2022-09-09T16:34:18;1.37;;;1.03;;
16407;SDS011;8313;49.894;8.084;2022-09-09T16:36:45;1.17;;;0.90;;
16407;SDS011;8313;49.894;8.084;2022-09-09T16:39:13;3.23;;;0.80;;
16407;SDS011;8313;49.894;8.084;2022-09-09T16:41:41;1.77;;;1.03;;
16407;SDS011;8313;49.894;8.084;2022-09-09T16:44:09;1.53;;;0.80;;
16407;SDS011;8313;49.894;8.084;2022-09-09T16:46:38;0.80;;;0.80;;
16407;SDS011;8313;49.894;8.084;2022-09-09T16:49:06;0.80;;;0.80;;
16407;SDS011;8313;49.894;8.084;2022-09-09T16:51:34;0.73;;;0.73;;
16407;SDS011;8313;49.894;8.084;2022-09-09T16:54:03;1.70;;;1.40;;
16407;SDS011;8313;49.894;8.084;2022-09-09T16:56:34;1.77;;;1.00;;
16407;SDS011;8313;49.894;8.084;2022-09-09T16:59:03;1.10;;;0.70;;
16407;SDS011;8313;49.894;8.084;2022-09-09T17:01:35;1.30;;;1.00;;
16407;SDS011;8313;49.894;8.084;2022-09-09T17:04:03;1.77;;;1.00;;
16407;SDS011;8313;49.894;8.084;2022-09-09T17:06:31;1.20;;;0.90;;
16407;SDS011;8313;49.894;8.084;2022-09-09T17:09:07;0.70;;;0.70;;
16407;SDS011;8313;49.894;8.084;2022-09-09T17:11:34;1.13;;;0.80;;
16407;SDS011;8313;49.894;8.084;2022-09-09T17:14:00;0.80;;;0.80;;
16407;SDS011;8313;49.894;8.084;2022-09-09T17:16:27;1.07;;;1.03;;
16407;SDS011;8313;49.894;8.084;2022-09-09T17:18:55;1.10;;;1.00;;
16407;SDS011;8313;49.894;8.084;2022-09-09T17:21:24;1.20;;;1.10;;
16407;SDS011;8313;49.894;8.084;2022-09-09T17:23:51;0.80;;;0.80;;
16407;SDS011;8313;49.894;8.084;2022-09-09T17:26:18;1.27;;;0.80;;